sensor_id;sensor_type;location;lat;lon;timestamp;pressure;altitude;pressure_sealevel;temperature;humidity
44457;BME280;30159;49.316;8.558;2023-04-09T00:00:39;101186.00;;;10.02;80.85
44457;BME280;30159;49.316;8.558;2023-04-09T00:03:07;101175.72;;;9.99;80.89
44457;BME280;30159;49.316;8.558;2023-04-09T00:05:37;101181.91;;;10.00;82.18
44457;BME280;30159;49.316;8.558;2023-04-09T00:08:04;101170.59;;;9.98;82.45
44457;BME280;30159;49.316;8.558;2023-04-09T00:10:31;101171.47;;;10.08;81.55
44457;BME280;30159;49.316;8.558;2023-04-09T00:12:58;101168.78;;;10.08;81.06
44457;BME280;30159;49.316;8.558;2023-04-09T00:15:24;101173.91;;;10.05;82.09
44457;BME280;30159;49.316;8.558;2023-04-09T00:17:50;101172.34;;;10.14;82.09
44457;BME280;30159;49.316;8.558;2023-04-09T00:20:21;101165.84;;;10.10;80.87
44457;BME280;30159;49.316;8.558;2023-04-09T00:22:48;101169.09;;;10.12;81.83
44457;BME280;30159;49.316;8.558;2023-04-09T00:25:16;101170.63;;;10.03;82.57
44457;BME280;30159;49.316;8.558;2023-04-09T00:27:42;101163.34;;;10.03;82.42
44457;BME280;30159;49.316;8.558;2023-04-09T00:30:09;101165.13;;;9.92;82.75
44457;BME280;30159;49.316;8.558;2023-04-09T00:32:36;101168.41;;;9.95;82.19
44457;BME280;30159;49.316;8.558;2023-04-09T00:35:03;101170.88;;;10.01;82.36
44457;BME280;30159;49.316;8.558;2023-04-09T00:37:31;101167.41;;;10.06;82.05
44457;BME280;30159;49.316;8.558;2023-04-09T00:39:57;101165.53;;;10.06;82.06
44457;BME280;30159;49.316;8.558;2023-04-09T00:42:24;101164.72;;;10.06;81.41
44457;BME280;30159;49.316;8.558;2023-04-09T00:44:50;101166.84;;;10.04;82.41
44457;BME280;30159;49.316;8.558;2023-04-09T00:47:17;101165.25;;;10.03;82.24
44457;BME280;30159;49.316;8.558;2023-04-09T00:49:44;101155.06;;;10.10;82.43
44457;BME280;30159;49.316;8.558;2023-04-09T00:52:10;101150.25;;;10.17;81.29
44457;BME280;30159;49.316;8.558;2023-04-09T00:54:38;101163.25;;;10.25;82.17
44457;BME280;30159;49.316;8.558;2023-04-09T00:57:05;101168.13;;;10.23;82.40
44457;BME280;30159;49.316;8.558;2023-04-09T00:59:31;101165.66;;;10.22;81.56
44457;BME280;30159;49.316;8.558;2023-04-09T01:01:58;101162.72;;;10.23;81.85
44457;BME280;30159;49.316;8.558;2023-04-09T01:04:25;101159.31;;;10.33;81.44
44457;BME280;30159;49.316;8.558;2023-04-09T01:06:54;101161.56;;;10.14;81.52
44457;BME280;30159;49.316;8.558;2023-04-09T01:09:27;101159.50;;;10.26;82.20
44457;BME280;30159;49.316;8.558;2023-04-09T01:12:06;101161.31;;;10.21;82.56
44457;BME280;30159;49.316;8.558;2023-04-09T01:14:38;101164.72;;;10.06;82.90
44457;BME280;30159;49.316;8.558;2023-04-09T01:17:13;101164.16;;;10.04;82.34
44457;BME280;30159;49.316;8.558;2023-04-09T01:19:48;100996.13;;;8.86;82.79
44457;BME280;30159;49.316;8.558;2023-04-09T01:22:28;101160.78;;;9.86;83.98
44457;BME280;30159;49.316;8.558;2023-04-09T01:25:06;101155.97;;;9.88;84.47
44457;BME280;30159;49.316;8.558;2023-04-09T01:27:43;101162.78;;;10.01;84.47
44457;BME280;30159;49.316;8.558;2023-04-09T01:30:15;101150.22;;;10.12;83.35
44457;BME280;30159;49.316;8.558;2023-04-09T01:32:43;101155.66;;;10.17;82.60
44457;BME280;30159;49.316;8.558;2023-04-09T01:35:10;101163.16;;;10.10;83.17
44457;BME280;30159;49.316;8.558;2023-04-09T01:37:38;101165.34;;;10.18;83.31
44457;BME280;30159;49.316;8.558;2023-04-09T01:40:06;101165.31;;;10.13;83.36
44457;BME280;30159;49.316;8.558;2023-04-09T01:42:34;101163.13;;;10.05;83.82
44457;BME280;30159;49.316;8.558;2023-04-09T01:45:03;101122.28;;;9.59;84.43
44457;BME280;30159;49.316;8.558;2023-04-09T01:47:32;101158.59;;;9.83;85.21
44457;BME280;30159;49.316;8.558;2023-04-09T01:50:00;101160.47;;;9.83;84.42
44457;BME280;30159;49.316;8.558;2023-04-09T01:52:27;101137.59;;;9.85;84.95
44457;BME280;30159;49.316;8.558;2023-04-09T01:54:55;101162.03;;;10.06;84.26
44457;BME280;30159;49.316;8.558;2023-04-09T01:57:22;101168.09;;;9.91;84.75
44457;BME280;30159;49.316;8.558;2023-04-09T01:59:48;101161.50;;;9.77;85.61
44457;BME280;30159;49.316;8.558;2023-04-09T02:02:18;101155.34;;;9.81;84.63
44457;BME280;30159;49.316;8.558;2023-04-09T02:04:49;101158.03;;;9.81;85.81
44457;BME280;30159;49.316;8.558;2023-04-09T02:07:24;101154.28;;;9.82;84.53
44457;BME280;30159;49.316;8.558;2023-04-09T02:09:53;101161.06;;;9.90;85.31
44457;BME280;30159;49.316;8.558;2023-04-09T02:12:20;101163.00;;;9.95;85.19
44457;BME280;30159;49.316;8.558;2023-04-09T02:14:50;101159.84;;;10.03;84.84
44457;BME280;30159;49.316;8.558;2023-04-09T02:17:17;101157.72;;;10.05;83.98
44457;BME280;30159;49.316;8.558;2023-04-09T02:19:45;101164.13;;;9.99;85.01
44457;BME280;30159;49.316;8.558;2023-04-09T02:22:14;101163.31;;;9.98;84.94
44457;BME280;30159;49.316;8.558;2023-04-09T02:24:40;101155.84;;;10.05;85.19
44457;BME280;30159;49.316;8.558;2023-04-09T02:27:07;101164.72;;;10.06;85.27
44457;BME280;30159;49.316;8.558;2023-04-09T02:29:34;101159.56;;;10.04;84.29
44457;BME280;30159;49.316;8.558;2023-04-09T02:32:00;101164.69;;;10.01;83.58
44457;BME280;30159;49.316;8.558;2023-04-09T02:34:27;101161.19;;;10.00;83.53
44457;BME280;30159;49.316;8.558;2023-04-09T02:36:53;101152.78;;;9.97;84.95
44457;BME280;30159;49.316;8.558;2023-04-09T02:39:21;101124.03;;;9.75;83.95
44457;BME280;30159;49.316;8.558;2023-04-09T02:41:48;101148.38;;;9.85;83.89
44457;BME280;30159;49.316;8.558;2023-04-09T02:44:14;101155.41;;;9.86;85.74
44457;BME280;30159;49.316;8.558;2023-04-09T02:46:42;101156.28;;;9.97;84.98
44457;BME280;30159;49.316;8.558;2023-04-09T02:49:09;101164.13;;;9.99;86.04
44457;BME280;30159;49.316;8.558;2023-04-09T02:51:35;101155.78;;;10.00;85.29
44457;BME280;30159;49.316;8.558;2023-04-09T02:54:02;101156.41;;;10.07;85.66
44457;BME280;30159;49.316;8.558;2023-04-09T02:56:30;101167.47;;;10.11;84.85
44457;BME280;30159;49.316;8.558;2023-04-09T02:58:57;101162.88;;;10.11;83.98
44457;BME280;30159;49.316;8.558;2023-04-09T03:01:23;101162.34;;;10.09;83.95
44457;BME280;30159;49.316;8.558;2023-04-09T03:03:50;101171.44;;;10.03;84.80
44457;BME280;30159;49.316;8.558;2023-04-09T03:06:16;101159.47;;;9.89;85.15
44457;BME280;30159;49.316;8.558;2023-04-09T03:08:43;101140.72;;;9.72;85.76
44457;BME280;30159;49.316;8.558;2023-04-09T03:11:10;101163.22;;;9.88;85.40
44457;BME280;30159;49.316;8.558;2023-04-09T03:13:38;101158.72;;;9.99;84.18
44457;BME280;30159;49.316;8.558;2023-04-09T03:16:05;101128.47;;;9.86;85.58
44457;BME280;30159;49.316;8.558;2023-04-09T03:18:31;101159.84;;;10.03;85.51
44457;BME280;30159;49.316;8.558;2023-04-09T03:20:58;101149.06;;;10.03;85.27
44457;BME280;30159;49.316;8.558;2023-04-09T03:23:24;101123.88;;;9.87;84.18
44457;BME280;30159;49.316;8.558;2023-04-09T03:25:59;101144.50;;;10.03;85.25
44457;BME280;30159;49.316;8.558;2023-04-09T03:28:25;101144.28;;;10.10;84.04
44457;BME280;30159;49.316;8.558;2023-04-09T03:30:53;101147.53;;;10.12;84.05
44457;BME280;30159;49.316;8.558;2023-04-09T03:33:20;101100.91;;;9.79;85.52
44457;BME280;30159;49.316;8.558;2023-04-09T03:35:46;101147.81;;;10.16;86.13
44457;BME280;30159;49.316;8.558;2023-04-09T03:38:13;101145.41;;;10.14;85.23
44457;BME280;30159;49.316;8.558;2023-04-09T03:40:39;101128.28;;;9.98;86.23
44457;BME280;30159;49.316;8.558;2023-04-09T03:43:06;101147.03;;;10.20;84.31
44457;BME280;30159;49.316;8.558;2023-04-09T03:45:33;101145.34;;;10.09;84.12
44457;BME280;30159;49.316;8.558;2023-04-09T03:48:01;101148.34;;;10.12;84.39
44457;BME280;30159;49.316;8.558;2023-04-09T03:50:27;101147.41;;;9.97;85.58
44457;BME280;30159;49.316;8.558;2023-04-09T03:52:54;101151.22;;;10.01;86.34
44457;BME280;30159;49.316;8.558;2023-04-09T03:55:21;101150.91;;;9.97;85.78
44457;BME280;30159;49.316;8.558;2023-04-09T03:57:47;101154.44;;;9.98;87.05
44457;BME280;30159;49.316;8.558;2023-04-09T04:00:14;101156.28;;;9.97;86.41
44457;BME280;30159;49.316;8.558;2023-04-09T04:02:40;101150.63;;;9.66;87.38
44457;BME280;30159;49.316;8.558;2023-04-09T04:05:08;101158.84;;;9.55;88.92
44457;BME280;30159;49.316;8.558;2023-04-09T04:07:35;101114.94;;;9.27;89.49
44457;BME280;30159;49.316;8.558;2023-04-09T04:10:09;101137.31;;;9.55;89.04
44457;BME280;30159;49.316;8.558;2023-04-09T04:12:36;101155.78;;;9.46;89.88
44457;BME280;30159;49.316;8.558;2023-04-09T04:15:03;101149.41;;;9.52;89.71
44457;BME280;30159;49.316;8.558;2023-04-09T04:17:29;101144.09;;;9.62;89.78
44457;BME280;30159;49.316;8.558;2023-04-09T04:19:56;101145.22;;;9.66;89.90
44457;BME280;30159;49.316;8.558;2023-04-09T04:22:24;101147.16;;;9.71;89.63
44457;BME280;30159;49.316;8.558;2023-04-09T04:24:50;101143.25;;;9.57;89.03
44457;BME280;30159;49.316;8.558;2023-04-09T04:27:17;101160.06;;;9.69;89.54
44457;BME280;30159;49.316;8.558;2023-04-09T04:29:43;101157.13;;;9.70;89.13
44457;BME280;30159;49.316;8.558;2023-04-09T04:32:10;101148.16;;;9.65;89.24
44457;BME280;30159;49.316;8.558;2023-04-09T04:34:36;101154.72;;;9.74;89.22
44457;BME280;30159;49.316;8.558;2023-04-09T04:37:03;101161.75;;;9.75;89.16
44457;BME280;30159;49.316;8.558;2023-04-09T04:39:31;101136.50;;;9.54;91.88
44457;BME280;30159;49.316;8.558;2023-04-09T04:41:57;101147.94;;;9.66;91.40
44457;BME280;30159;49.316;8.558;2023-04-09T04:44:25;101149.59;;;9.45;90.22
44457;BME280;30159;49.316;8.558;2023-04-09T04:46:51;101158.84;;;9.55;90.54
44457;BME280;30159;49.316;8.558;2023-04-09T04:49:18;101160.50;;;9.56;91.08
44457;BME280;30159;49.316;8.558;2023-04-09T04:51:44;101163.19;;;9.56;90.73
44457;BME280;30159;49.316;8.558;2023-04-09T04:54:11;101163.66;;;9.53;89.72
44457;BME280;30159;49.316;8.558;2023-04-09T04:56:39;101162.81;;;9.47;90.45
44457;BME280;30159;49.316;8.558;2023-04-09T04:59:05;101168.97;;;9.42;91.00
44457;BME280;30159;49.316;8.558;2023-04-09T05:01:32;101165.34;;;9.32;91.95
44457;BME280;30159;49.316;8.558;2023-04-09T05:03:58;101167.31;;;9.41;92.55
44457;BME280;30159;49.316;8.558;2023-04-09T05:06:27;101169.56;;;9.49;91.86
44457;BME280;30159;49.316;8.558;2023-04-09T05:08:54;101159.84;;;9.48;92.05
44457;BME280;30159;49.316;8.558;2023-04-09T05:11:22;101164.03;;;9.61;90.73
44457;BME280;30159;49.316;8.558;2023-04-09T05:13:50;101161.63;;;9.65;90.46
44457;BME280;30159;49.316;8.558;2023-04-09T05:16:17;101168.44;;;9.67;90.18
44457;BME280;30159;49.316;8.558;2023-04-09T05:18:43;101171.56;;;9.59;90.99
44457;BME280;30159;49.316;8.558;2023-04-09T05:21:10;101174.00;;;9.61;90.90
44457;BME280;30159;49.316;8.558;2023-04-09T05:23:36;101171.94;;;9.68;91.06
44457;BME280;30159;49.316;8.558;2023-04-09T05:26:03;101177.88;;;9.70;91.33
44457;BME280;30159;49.316;8.558;2023-04-09T05:28:30;101172.78;;;9.74;91.20
44457;BME280;30159;49.316;8.558;2023-04-09T05:30:58;101175.22;;;9.75;89.91
44457;BME280;30159;49.316;8.558;2023-04-09T05:33:24;101175.31;;;9.85;91.18
44457;BME280;30159;49.316;8.558;2023-04-09T05:35:51;101176.75;;;9.93;89.26
44457;BME280;30159;49.316;8.558;2023-04-09T05:38:17;101176.19;;;9.91;87.90
44457;BME280;30159;49.316;8.558;2023-04-09T05:40:44;101178.97;;;10.01;88.18
44457;BME280;30159;49.316;8.558;2023-04-09T05:43:10;101179.34;;;10.15;88.53
44457;BME280;30159;49.316;8.558;2023-04-09T05:45:37;101176.13;;;10.18;87.36
44457;BME280;30159;49.316;8.558;2023-04-09T05:48:05;101177.28;;;10.27;89.74
44457;BME280;30159;49.316;8.558;2023-04-09T05:50:31;101180.31;;;10.31;89.00
44457;BME280;30159;49.316;8.558;2023-04-09T05:52:58;101187.50;;;10.25;87.79
44457;BME280;30159;49.316;8.558;2023-04-09T05:55:24;101179.34;;;10.15;87.34
44457;BME280;30159;49.316;8.558;2023-04-09T05:57:51;101177.66;;;10.36;87.06
44457;BME280;30159;49.316;8.558;2023-04-09T06:00:18;101186.56;;;10.37;87.70
44457;BME280;30159;49.316;8.558;2023-04-09T06:02:45;101184.72;;;10.42;87.15
44457;BME280;30159;49.316;8.558;2023-04-09T06:05:13;101188.28;;;10.53;86.25
44457;BME280;30159;49.316;8.558;2023-04-09T06:07:40;101185.69;;;10.63;86.34
44457;BME280;30159;49.316;8.558;2023-04-09T06:10:07;101185.75;;;10.79;85.47
44457;BME280;30159;49.316;8.558;2023-04-09T06:12:34;101184.66;;;10.74;84.87
44457;BME280;30159;49.316;8.558;2023-04-09T06:15:01;101193.41;;;10.92;85.01
44457;BME280;30159;49.316;8.558;2023-04-09T06:17:28;101160.66;;;10.73;83.94
44457;BME280;30159;49.316;8.558;2023-04-09T06:19:54;101194.97;;;10.83;84.54
44457;BME280;30159;49.316;8.558;2023-04-09T06:22:22;101118.69;;;10.45;85.01
44457;BME280;30159;49.316;8.558;2023-04-09T06:24:48;101190.25;;;11.05;83.88
44457;BME280;30159;49.316;8.558;2023-04-09T06:27:15;101193.63;;;11.38;82.22
44457;BME280;30159;49.316;8.558;2023-04-09T06:29:43;101201.75;;;11.48;80.78
44457;BME280;30159;49.316;8.558;2023-04-09T06:32:10;101195.38;;;11.95;80.20
44457;BME280;30159;49.316;8.558;2023-04-09T06:34:36;101200.28;;;12.04;79.69
44457;BME280;30159;49.316;8.558;2023-04-09T06:37:03;101187.84;;;12.13;78.55
44457;BME280;30159;49.316;8.558;2023-04-09T06:39:30;101194.59;;;12.15;77.46
44457;BME280;30159;49.316;8.558;2023-04-09T06:41:57;101199.44;;;12.49;76.62
44457;BME280;30159;49.316;8.558;2023-04-09T06:44:24;101194.84;;;12.44;76.21
44457;BME280;30159;49.316;8.558;2023-04-09T06:46:50;101208.38;;;12.44;75.83
44457;BME280;30159;49.316;8.558;2023-04-09T06:49:17;101210.50;;;12.78;75.23
44457;BME280;30159;49.316;8.558;2023-04-09T06:51:44;101202.63;;;12.82;75.26
44457;BME280;30159;49.316;8.558;2023-04-09T06:54:10;101206.16;;;12.77;74.41
44457;BME280;30159;49.316;8.558;2023-04-09T06:56:38;101209.97;;;12.76;75.01
44457;BME280;30159;49.316;8.558;2023-04-09T06:59:06;101206.50;;;12.30;75.81
44457;BME280;30159;49.316;8.558;2023-04-09T07:01:32;101212.72;;;12.40;75.15
44457;BME280;30159;49.316;8.558;2023-04-09T07:04:01;101209.75;;;12.32;78.15
44457;BME280;30159;49.316;8.558;2023-04-09T07:06:28;101206.44;;;12.76;76.24
44457;BME280;30159;49.316;8.558;2023-04-09T07:08:55;101200.47;;;12.89;75.07
44457;BME280;30159;49.316;8.558;2023-04-09T07:11:21;101198.59;;;12.74;73.91
44457;BME280;30159;49.316;8.558;2023-04-09T07:13:49;101202.94;;;12.75;74.24
44457;BME280;30159;49.316;8.558;2023-04-09T07:16:15;101207.78;;;12.94;74.86
44457;BME280;30159;49.316;8.558;2023-04-09T07:18:42;101202.78;;;13.26;73.86
44457;BME280;30159;49.316;8.558;2023-04-09T07:21:08;101207.69;;;13.19;73.86
44457;BME280;30159;49.316;8.558;2023-04-09T07:23:35;101211.31;;;12.89;73.47
44457;BME280;30159;49.316;8.558;2023-04-09T07:26:02;101178.22;;;12.97;73.19
44457;BME280;30159;49.316;8.558;2023-04-09T07:28:29;101199.84;;;13.07;72.48
44457;BME280;30159;49.316;8.558;2023-04-09T07:30:57;101075.88;;;12.09;73.86
44457;BME280;30159;49.316;8.558;2023-04-09T07:33:25;101207.50;;;14.39;71.81
44457;BME280;30159;49.316;8.558;2023-04-09T07:35:52;101200.88;;;15.71;66.26
44457;BME280;30159;49.316;8.558;2023-04-09T07:38:18;101185.47;;;15.85;65.16
44457;BME280;30159;49.316;8.558;2023-04-09T07:40:45;101148.78;;;16.15;62.51
44457;BME280;30159;49.316;8.558;2023-04-09T07:43:11;101069.72;;;14.79;64.53
44457;BME280;30159;49.316;8.558;2023-04-09T07:45:38;101220.13;;;14.25;67.16
44457;BME280;30159;49.316;8.558;2023-04-09T07:48:06;101205.50;;;14.21;68.00
44457;BME280;30159;49.316;8.558;2023-04-09T07:50:33;101216.34;;;14.21;70.26
44457;BME280;30159;49.316;8.558;2023-04-09T07:53:00;101217.50;;;13.70;69.65
44457;BME280;30159;49.316;8.558;2023-04-09T07:55:27;101210.78;;;13.57;71.42
44457;BME280;30159;49.316;8.558;2023-04-09T07:57:53;101219.78;;;14.31;71.19
44457;BME280;30159;49.316;8.558;2023-04-09T08:00:20;101206.38;;;14.11;69.52
44457;BME280;30159;49.316;8.558;2023-04-09T08:02:46;101220.09;;;13.90;69.28
44457;BME280;30159;49.316;8.558;2023-04-09T08:05:14;101221.47;;;13.38;71.28
44457;BME280;30159;49.316;8.558;2023-04-09T08:07:40;101219.03;;;13.26;72.87
44457;BME280;30159;49.316;8.558;2023-04-09T08:10:08;101224.16;;;13.33;71.61
44457;BME280;30159;49.316;8.558;2023-04-09T08:12:39;101217.28;;;14.01;71.96
44457;BME280;30159;49.316;8.558;2023-04-09T08:15:06;101216.72;;;14.38;69.37
44457;BME280;30159;49.316;8.558;2023-04-09T08:17:33;101223.47;;;14.46;70.25
44457;BME280;30159;49.316;8.558;2023-04-09T08:20:01;101206.94;;;14.42;70.65
44457;BME280;30159;49.316;8.558;2023-04-09T08:22:29;101230.75;;;14.50;69.76
44457;BME280;30159;49.316;8.558;2023-04-09T08:24:56;101236.19;;;14.50;69.74
44457;BME280;30159;49.316;8.558;2023-04-09T08:27:23;101230.31;;;14.38;69.99
44457;BME280;30159;49.316;8.558;2023-04-09T08:29:49;101224.38;;;14.31;69.90
44457;BME280;30159;49.316;8.558;2023-04-09T08:32:16;101210.84;;;13.97;70.09
44457;BME280;30159;49.316;8.558;2023-04-09T08:34:42;101231.19;;;13.89;70.16
44457;BME280;30159;49.316;8.558;2023-04-09T08:37:09;101237.91;;;14.02;72.00
44457;BME280;30159;49.316;8.558;2023-04-09T08:39:37;101231.53;;;13.27;72.31
44457;BME280;30159;49.316;8.558;2023-04-09T08:42:04;101229.78;;;13.57;73.19
44457;BME280;30159;49.316;8.558;2023-04-09T08:44:32;101235.09;;;13.73;73.39
44457;BME280;30159;49.316;8.558;2023-04-09T08:46:58;101125.34;;;12.30;71.70
44457;BME280;30159;49.316;8.558;2023-04-09T08:49:25;101233.78;;;12.79;73.11
44457;BME280;30159;49.316;8.558;2023-04-09T08:51:52;101247.88;;;12.71;75.14
44457;BME280;30159;49.316;8.558;2023-04-09T08:54:19;101231.84;;;13.00;74.60
44457;BME280;30159;49.316;8.558;2023-04-09T08:56:47;101243.41;;;13.21;74.82
44457;BME280;30159;49.316;8.558;2023-04-09T08:59:14;101234.47;;;13.26;73.52
44457;BME280;30159;49.316;8.558;2023-04-09T09:01:42;101242.63;;;13.21;73.01
44457;BME280;30159;49.316;8.558;2023-04-09T09:04:10;101238.44;;;13.54;72.70
44457;BME280;30159;49.316;8.558;2023-04-09T09:06:38;101236.19;;;13.72;72.85
44457;BME280;30159;49.316;8.558;2023-04-09T09:09:06;101234.63;;;14.05;71.68
44457;BME280;30159;49.316;8.558;2023-04-09T09:11:33;101240.88;;;14.40;70.09
44457;BME280;30159;49.316;8.558;2023-04-09T09:14:03;101236.06;;;14.66;69.66
44457;BME280;30159;49.316;8.558;2023-04-09T09:16:30;101210.78;;;14.70;68.46
44457;BME280;30159;49.316;8.558;2023-04-09T09:18:59;101242.59;;;14.65;66.02
44457;BME280;30159;49.316;8.558;2023-04-09T09:21:26;101235.69;;;14.78;68.53
44457;BME280;30159;49.316;8.558;2023-04-09T09:23:53;101235.78;;;14.67;68.37
44457;BME280;30159;49.316;8.558;2023-04-09T09:26:22;101235.03;;;14.62;68.42
44457;BME280;30159;49.316;8.558;2023-04-09T09:28:50;101170.25;;;14.16;69.98
44457;BME280;30159;49.316;8.558;2023-04-09T09:31:19;101239.84;;;14.70;67.33
44457;BME280;30159;49.316;8.558;2023-04-09T09:33:47;101233.78;;;14.78;66.30
44457;BME280;30159;49.316;8.558;2023-04-09T09:36:15;101233.59;;;14.35;66.30
44457;BME280;30159;49.316;8.558;2023-04-09T09:38:52;101235.53;;;14.64;67.16
44457;BME280;30159;49.316;8.558;2023-04-09T09:41:19;101225.94;;;14.77;66.11
44457;BME280;30159;49.316;8.558;2023-04-09T09:43:46;101232.09;;;14.82;63.59
44457;BME280;30159;49.316;8.558;2023-04-09T09:46:14;101227.72;;;14.23;62.19
44457;BME280;30159;49.316;8.558;2023-04-09T09:48:42;101231.91;;;14.05;65.37
44457;BME280;30159;49.316;8.558;2023-04-09T09:51:10;101240.47;;;13.83;66.14
44457;BME280;30159;49.316;8.558;2023-04-09T09:53:38;101174.06;;;13.25;66.04
44457;BME280;30159;49.316;8.558;2023-04-09T09:56:06;101228.00;;;13.87;65.44
44457;BME280;30159;49.316;8.558;2023-04-09T09:58:36;101225.66;;;14.09;64.76
44457;BME280;30159;49.316;8.558;2023-04-09T10:01:07;101218.22;;;13.86;63.34
44457;BME280;30159;49.316;8.558;2023-04-09T10:03:35;101218.47;;;13.89;63.88
44457;BME280;30159;49.316;8.558;2023-04-09T10:06:05;101216.38;;;14.55;63.51
44457;BME280;30159;49.316;8.558;2023-04-09T10:08:33;101214.53;;;14.40;60.71
44457;BME280;30159;49.316;8.558;2023-04-09T10:11:02;101213.06;;;14.24;60.48
44457;BME280;30159;49.316;8.558;2023-04-09T10:13:34;101212.94;;;14.73;61.93
44457;BME280;30159;49.316;8.558;2023-04-09T10:16:01;101214.22;;;15.29;59.44
44457;BME280;30159;49.316;8.558;2023-04-09T10:18:28;101219.66;;;15.29;59.10
44457;BME280;30159;49.316;8.558;2023-04-09T10:20:58;101209.88;;;15.47;56.89
44457;BME280;30159;49.316;8.558;2023-04-09T10:23:35;101205.47;;;15.94;57.57
44457;BME280;30159;49.316;8.558;2023-04-09T10:26:01;101198.03;;;16.33;56.03
44457;BME280;30159;49.316;8.558;2023-04-09T10:28:29;101202.22;;;16.58;54.11
44457;BME280;30159;49.316;8.558;2023-04-09T10:30:56;101203.38;;;16.05;52.73
44457;BME280;30159;49.316;8.558;2023-04-09T10:33:24;101151.16;;;14.84;53.88
44457;BME280;30159;49.316;8.558;2023-04-09T10:35:52;101204.84;;;15.16;54.57
44457;BME280;30159;49.316;8.558;2023-04-09T10:38:34;101199.94;;;15.18;55.48
44457;BME280;30159;49.316;8.558;2023-04-09T10:41:13;101203.28;;;15.34;54.63
44457;BME280;30159;49.316;8.558;2023-04-09T10:43:40;101197.56;;;15.12;55.50
44457;BME280;30159;49.316;8.558;2023-04-09T10:46:24;101194.53;;;15.37;54.64
44457;BME280;30159;49.316;8.558;2023-04-09T10:49:06;101191.03;;;15.75;54.83
44457;BME280;30159;49.316;8.558;2023-04-09T10:51:34;101188.13;;;16.23;55.94
44457;BME280;30159;49.316;8.558;2023-04-09T10:54:02;101195.59;;;16.78;55.52
44457;BME280;30159;49.316;8.558;2023-04-09T10:56:28;101185.31;;;17.30;54.28
44457;BME280;30159;49.316;8.558;2023-04-09T10:58:55;101183.88;;;16.17;54.75
44457;BME280;30159;49.316;8.558;2023-04-09T11:01:21;101186.63;;;15.98;53.79
44457;BME280;30159;49.316;8.558;2023-04-09T11:04:06;101178.69;;;15.83;54.87
44457;BME280;30159;49.316;8.558;2023-04-09T11:06:35;101162.13;;;16.31;54.37
44457;BME280;30159;49.316;8.558;2023-04-09T11:09:03;101183.25;;;16.53;54.15
44457;BME280;30159;49.316;8.558;2023-04-09T11:11:29;101171.31;;;16.81;53.86
44457;BME280;30159;49.316;8.558;2023-04-09T11:13:58;101176.03;;;17.31;52.40
44457;BME280;30159;49.316;8.558;2023-04-09T11:16:28;101181.41;;;17.09;52.45
44457;BME280;30159;49.316;8.558;2023-04-09T11:18:55;101187.56;;;17.00;50.78
44457;BME280;30159;49.316;8.558;2023-04-09T11:21:25;101184.59;;;16.55;49.82
44457;BME280;30159;49.316;8.558;2023-04-09T11:23:52;101171.84;;;16.37;48.64
44457;BME280;30159;49.316;8.558;2023-04-09T11:26:23;101106.16;;;16.25;51.16
44457;BME280;30159;49.316;8.558;2023-04-09T11:28:54;101168.47;;;17.00;50.86
44457;BME280;30159;49.316;8.558;2023-04-09T11:31:26;101035.69;;;16.23;50.53
44457;BME280;30159;49.316;8.558;2023-04-09T11:33:53;101174.06;;;17.45;50.55
44457;BME280;30159;49.316;8.558;2023-04-09T11:36:20;101168.03;;;17.71;49.72
44457;BME280;30159;49.316;8.558;2023-04-09T11:38:47;101171.31;;;17.23;48.74
44457;BME280;30159;49.316;8.558;2023-04-09T11:41:14;101069.06;;;16.42;49.00
44457;BME280;30159;49.316;8.558;2023-04-09T11:43:42;101162.00;;;16.96;49.13
44457;BME280;30159;49.316;8.558;2023-04-09T11:46:08;101160.13;;;16.50;49.40
44457;BME280;30159;49.316;8.558;2023-04-09T11:48:35;101170.97;;;16.55;51.17
44457;BME280;30159;49.316;8.558;2023-04-09T11:51:02;101167.28;;;17.06;51.27
44457;BME280;30159;49.316;8.558;2023-04-09T11:53:30;101168.41;;;17.56;49.83
44457;BME280;30159;49.316;8.558;2023-04-09T11:55:56;101176.13;;;17.26;48.65
44457;BME280;30159;49.316;8.558;2023-04-09T11:58:24;101172.75;;;16.46;49.50
44457;BME280;30159;49.316;8.558;2023-04-09T12:00:54;101164.84;;;15.98;50.86
44457;BME280;30159;49.316;8.558;2023-04-09T12:03:27;101172.16;;;16.49;50.93
44457;BME280;30159;49.316;8.558;2023-04-09T12:05:54;101176.66;;;17.00;50.06
44457;BME280;30159;49.316;8.558;2023-04-09T12:08:22;101180.69;;;17.31;49.97
44457;BME280;30159;49.316;8.558;2023-04-09T12:10:48;101172.09;;;17.37;50.28
44457;BME280;30159;49.316;8.558;2023-04-09T12:13:15;101171.59;;;16.80;48.43
44457;BME280;30159;49.316;8.558;2023-04-09T12:15:42;101167.25;;;16.65;49.24
44457;BME280;30159;49.316;8.558;2023-04-09T12:18:11;101166.88;;;16.85;49.51
44457;BME280;30159;49.316;8.558;2023-04-09T12:20:39;101165.16;;;17.54;50.16
44457;BME280;30159;49.316;8.558;2023-04-09T12:23:08;101163.00;;;18.01;49.51
44457;BME280;30159;49.316;8.558;2023-04-09T12:25:36;101107.59;;;18.00;49.76
44457;BME280;30159;49.316;8.558;2023-04-09T12:28:05;101158.56;;;18.36;48.61
44457;BME280;30159;49.316;8.558;2023-04-09T12:30:32;101156.44;;;18.56;49.70
44457;BME280;30159;49.316;8.558;2023-04-09T12:32:58;101149.94;;;18.83;47.32
44457;BME280;30159;49.316;8.558;2023-04-09T12:35:27;101096.91;;;18.44;47.75
44457;BME280;30159;49.316;8.558;2023-04-09T12:37:53;101146.00;;;19.06;48.48
44457;BME280;30159;49.316;8.558;2023-04-09T12:40:20;101143.34;;;19.50;47.40
44457;BME280;30159;49.316;8.558;2023-04-09T12:42:47;101143.84;;;19.61;46.71
44457;BME280;30159;49.316;8.558;2023-04-09T12:45:15;101141.88;;;19.44;46.99
44457;BME280;30159;49.316;8.558;2023-04-09T12:47:42;101147.25;;;18.91;47.68
44457;BME280;30159;49.316;8.558;2023-04-09T12:50:11;101135.47;;;18.42;47.98
44457;BME280;30159;49.316;8.558;2023-04-09T12:52:39;101100.13;;;17.83;49.37
44457;BME280;30159;49.316;8.558;2023-04-09T12:55:06;101125.06;;;17.90;50.00